Accueil
METAR-TAF:

METAR-TAF

Aéroports :

Aéroport international de Coni

Coni, Italie

latitude: 44-32-47N, longitude: 007-37-20E, altitude: 386 m

Observation

Le bulletin a été fait il y a 39 minutes, à 17:50 UTC
Vent 10 kt de nord/nord-est
Température 20°C
Humidité 24%
Pression 1009 hPa
Visibilité 10 km ou plus

METAR: LIMZ 071750Z AUTO 03010KT 9999 NCD 20/M01 Q1009

Heure: 20:29 (18:29 UTC)

Prévision

Le bulletin a été fait il y a 1 heure et 29 minutes, à 17:00 UTC
Prévision valable du 07 à 18 UTC au 08 à 18 UTC
Vent 5 kt de direction variable
Visibilité 10 km ou plus
Quelques nuages à une hauteur de 7000 ft
Temporairement
du 08 à 10 UTC au 08 à 16 UTC
Vent 10 kt de est

TAF: LIMZ 071700Z 0718/0818 VRB05KT 9999 FEW070 TEMPO 0810/0816 08010KT

Observations et prévisions météorologiques de plus de 4000 aéroports (messages METAR et TAF).

Les stations disponibles sont représentées par des disques jaunes et rouges sur la carte.

Passer la souris dessus pour voir le nom de la station.

Cliquer dessus pour voir les observations et prévisions météorologiques.

Pour changer de carte: cliquez sur les boutons verts avec une croix noire pour zoomer, sur le bouton vert avec un tiret pour effectuer un zoom arrière, ou sur les flèches vertes pour les cartes adjacentes.


METAR-TAF: